Carnival Liberty — HPYE — position and weather

sailwx.info

Track history (hours):
 
Tides and Currents Weather Stations Pressure Air Temp Water Temp Dewpoint Dewpoint Depression Visibility Wind Speed Wind Dir Waves Ship Positions

Carnival Liberty

Last reported at 2016-May-25 16:21 UTC. Time now 2016-May-25 16:44 UTC.
Position N 29°19' W 094°48'.

Type: Ship. MMSI: 371083000.

Date/timePositionNaut miles runAvg speedWind from/ knotsBaromVisibWave heightAir tempDewpointWater temp
2016-May-25 16:21N 29°19' W 094°48'0 0.0
2016-May-25 15:33N 29°19' W 094°48'0 0.0
2016-May-25 13:23N 29°19' W 094°48'0 0.0
2016-May-25 12:33N 29°19' W 094°48'1 1.0
2016-May-25 11:32N 29°19' W 094°47'11 9.7
2016-May-25 10:25N 29°17' W 094°35'1315.7
2016-May-25 09:34N 29°09' W 094°22'2019.5
2016-May-25 08:31N 28°58' W 094°03'62919.6
2016-May-24 00:28N 20°46' W 086°51'1820.0
2016-May-23 23:33N 20°29' W 086°59'1 0.9
2016-May-23 22:32N 20°29' W 086°59'0 0.0
2016-May-23 21:31N 20°29' W 086°59'0 0.0
2016-May-23 20:31N 20°29' W 086°59'0 0.0
2016-May-23 19:33N 20°29' W 086°59'0 0.0
2016-May-23 18:33N 20°29' W 086°59'0 0.0
2016-May-23 17:33N 20°29' W 086°59'0 0.0
2016-May-23 16:32N 20°29' W 086°59'0 0.0
2016-May-23 15:32N 20°29' W 086°59'0 0.0
2016-May-23 14:31N 20°29' W 086°59'1 0.8
2016-May-23 13:33N 20°29' W 086°59'1211.7
2016-May-23 12:33N 20°40' W 086°54'67317.3
2016-May-21 21:33N 29°20' W 094°47'2 0.2
2016-May-21 13:04N 29°19' W 094°48'0 0.0
2016-May-21 12:33N 29°19' W 094°48'1 1.1
2016-May-21 11:33N 29°19' W 094°47'8 7.9
2016-May-21 10:33N 29°19' W 094°38'5310.6
2016-May-21 05:33N 28°27' W 094°25'  
2016-May-19 00:13N 20°44' W 086°52'1320.3
2016-May-18 23:34N 20°32' W 086°59'3 3.0
2016-May-18 22:33N 20°29' W 086°59'0 0.0
2016-May-18 21:33N 20°29' W 086°59'0 0.0
2016-May-18 20:32N 20°29' W 086°59'0 0.0
2016-May-18 19:23N 20°29' W 086°59'0 0.0
2016-May-18 18:31N 20°29' W 086°59'0 0.0
2016-May-18 17:31N 20°29' W 086°59'0 0.0
2016-May-18 16:28N 20°29' W 086°59'0 0.0
2016-May-18 15:30N 20°29' W 086°59'0 0.0
2016-May-18 14:33N 20°29' W 086°59'0 0.0
2016-May-18 13:33N 20°29' W 086°59'7 6.5
2016-May-18 12:33N 20°35' W 086°58'67417.6
2016-May-16 22:20N 29°21' W 094°44'4 1.2
2016-May-16 19:04N 29°19' W 094°48'0 0.0
2016-May-16 12:24N 29°19' W 094°48'1 1.5
2016-May-16 11:31N 29°20' W 094°47'1210.8
2016-May-16 10:22N 29°16' W 094°33'  
Track history (hours):
 
Tides and Currents Weather Stations Pressure Air Temp Water Temp Dewpoint Dewpoint Depression Visibility Wind Speed Wind Dir Waves Ship Positions

Carnival Liberty

Last reported at 2016-May-25 16:21 UTC. Time now 2016-May-25 16:44 UTC.
Position N 29°19' W 094°48'.

Type: Ship. MMSI: 371083000.

Date/timePositionNaut miles runAvg speedWind from/ knotsBaromVisibWave heightAir tempDewpointWater temp
2016-May-25 16:21N 29°19' W 094°48'0 0.0
2016-May-25 15:33N 29°19' W 094°48'0 0.0
2016-May-25 13:23N 29°19' W 094°48'0 0.0
2016-May-25 12:33N 29°19' W 094°48'1 1.0
2016-May-25 11:32N 29°19' W 094°47'11 9.7
2016-May-25 10:25N 29°17' W 094°35'1315.7
2016-May-25 09:34N 29°09' W 094°22'2019.5
2016-May-25 08:31N 28°58' W 094°03'62919.6
2016-May-24 00:28N 20°46' W 086°51'1820.0
2016-May-23 23:33N 20°29' W 086°59'1 0.9
2016-May-23 22:32N 20°29' W 086°59'0 0.0
2016-May-23 21:31N 20°29' W 086°59'0 0.0
2016-May-23 20:31N 20°29' W 086°59'0 0.0
2016-May-23 19:33N 20°29' W 086°59'0 0.0
2016-May-23 18:33N 20°29' W 086°59'0 0.0
2016-May-23 17:33N 20°29' W 086°59'0 0.0
2016-May-23 16:32N 20°29' W 086°59'0 0.0
2016-May-23 15:32N 20°29' W 086°59'0 0.0
2016-May-23 14:31N 20°29' W 086°59'1 0.8
2016-May-23 13:33N 20°29' W 086°59'1211.7
2016-May-23 12:33N 20°40' W 086°54'67317.3
2016-May-21 21:33N 29°20' W 094°47'2 0.2
2016-May-21 13:04N 29°19' W 094°48'0 0.0
2016-May-21 12:33N 29°19' W 094°48'1 1.1
2016-May-21 11:33N 29°19' W 094°47'8 7.9
2016-May-21 10:33N 29°19' W 094°38'5310.6
2016-May-21 05:33N 28°27' W 094°25'  
2016-May-19 00:13N 20°44' W 086°52'1320.3
2016-May-18 23:34N 20°32' W 086°59'3 3.0
2016-May-18 22:33N 20°29' W 086°59'0 0.0
2016-May-18 21:33N 20°29' W 086°59'0 0.0
2016-May-18 20:32N 20°29' W 086°59'0 0.0
2016-May-18 19:23N 20°29' W 086°59'0 0.0
2016-May-18 18:31N 20°29' W 086°59'0 0.0
2016-May-18 17:31N 20°29' W 086°59'0 0.0
2016-May-18 16:28N 20°29' W 086°59'0 0.0
2016-May-18 15:30N 20°29' W 086°59'0 0.0
2016-May-18 14:33N 20°29' W 086°59'0 0.0
2016-May-18 13:33N 20°29' W 086°59'7 6.5
2016-May-18 12:33N 20°35' W 086°58'67417.6
2016-May-16 22:20N 29°21' W 094°44'4 1.2
2016-May-16 19:04N 29°19' W 094°48'0 0.0
2016-May-16 12:24N 29°19' W 094°48'1 1.5
2016-May-16 11:31N 29°20' W 094°47'1210.8
2016-May-16 10:22N 29°16' W 094°33'  

Dump ship's entire track history